sensor_id;sensor_type;location;lat;lon;timestamp;pressure;altitude;pressure_sealevel;temperature;humidity
61568;BME280;47462;59.172;17.196;2022-11-27T00:01:10;102482.09;;;2.64;86.20
61568;BME280;47462;59.172;17.196;2022-11-27T00:03:36;102208.28;;;1.08;85.79
61568;BME280;47462;59.172;17.196;2022-11-27T00:06:01;102405.22;;;2.25;86.00
61568;BME280;47462;59.172;17.196;2022-11-27T00:08:26;102332.34;;;1.76;86.23
61568;BME280;47462;59.172;17.196;2022-11-27T00:10:52;102475.03;;;2.58;86.34
61568;BME280;47462;59.172;17.196;2022-11-27T00:13:18;102475.09;;;2.60;86.57
61568;BME280;47462;59.172;17.196;2022-11-27T00:15:43;102459.63;;;2.60;86.55
61568;BME280;47462;59.172;17.196;2022-11-27T00:18:09;102457.00;;;2.58;86.54
61568;BME280;47462;59.172;17.196;2022-11-27T00:20:35;102453.56;;;2.58;86.33
61568;BME280;47462;59.172;17.196;2022-11-27T00:23:00;102423.81;;;2.42;86.28
61568;BME280;47462;59.172;17.196;2022-11-27T00:25:26;102451.63;;;2.52;86.19
61568;BME280;47462;59.172;17.196;2022-11-27T00:27:52;102429.25;;;2.24;86.11
61568;BME280;47462;59.172;17.196;2022-11-27T00:30:17;102466.13;;;2.48;86.41
61568;BME280;47462;59.172;17.196;2022-11-27T00:32:43;102448.66;;;2.40;86.53
61568;BME280;47462;59.172;17.196;2022-11-27T00:35:09;102458.50;;;2.52;86.54
61568;BME280;47462;59.172;17.196;2022-11-27T00:37:34;102459.44;;;2.54;86.63
61568;BME280;47462;59.172;17.196;2022-11-27T00:40:00;102472.34;;;2.55;86.54
61568;BME280;47462;59.172;17.196;2022-11-27T00:42:26;102447.44;;;2.56;86.38
61568;BME280;47462;59.172;17.196;2022-11-27T00:44:51;102431.78;;;2.49;86.12
61568;BME280;47462;59.172;17.196;2022-11-27T00:47:16;102453.44;;;2.55;86.14
61568;BME280;47462;59.172;17.196;2022-11-27T00:49:42;102456.78;;;2.52;86.25
61568;BME280;47462;59.172;17.196;2022-11-27T00:52:07;102455.94;;;2.52;86.57
61568;BME280;47462;59.172;17.196;2022-11-27T00:54:33;102402.50;;;2.20;86.20
61568;BME280;47462;59.172;17.196;2022-11-27T00:56:58;102455.13;;;2.54;86.44
61568;BME280;47462;59.172;17.196;2022-11-27T00:59:24;102369.31;;;2.02;86.08
61568;BME280;47462;59.172;17.196;2022-11-27T01:01:49;102442.00;;;2.46;86.31
61568;BME280;47462;59.172;17.196;2022-11-27T01:04:15;102454.28;;;2.54;86.00
61568;BME280;47462;59.172;17.196;2022-11-27T01:06:41;102460.19;;;2.51;85.98
61568;BME280;47462;59.172;17.196;2022-11-27T01:09:08;102438.25;;;2.37;86.18
61568;BME280;47462;59.172;17.196;2022-11-27T01:11:35;102460.19;;;2.51;86.25
61568;BME280;47462;59.172;17.196;2022-11-27T01:14:05;102464.31;;;2.46;86.32
61568;BME280;47462;59.172;17.196;2022-11-27T01:16:31;102456.50;;;2.43;86.28
61568;BME280;47462;59.172;17.196;2022-11-27T01:18:58;102452.16;;;2.42;85.95
61568;BME280;47462;59.172;17.196;2022-11-27T01:21:25;102394.75;;;1.94;85.90
61568;BME280;47462;59.172;17.196;2022-11-27T01:23:52;102449.31;;;2.34;86.03
61568;BME280;47462;59.172;17.196;2022-11-27T01:26:18;102445.88;;;2.34;86.31
61568;BME280;47462;59.172;17.196;2022-11-27T01:28:44;102456.41;;;2.40;86.11
61568;BME280;47462;59.172;17.196;2022-11-27T01:31:21;102454.63;;;2.39;86.43
61568;BME280;47462;59.172;17.196;2022-11-27T01:33:50;102418.66;;;2.14;85.82
61568;BME280;47462;59.172;17.196;2022-11-27T01:36:16;102464.13;;;2.40;86.09
61568;BME280;47462;59.172;17.196;2022-11-27T01:38:41;102462.34;;;2.39;86.10
61568;BME280;47462;59.172;17.196;2022-11-27T01:41:19;102439.25;;;2.14;85.87
61568;BME280;47462;59.172;17.196;2022-11-27T01:43:49;102465.78;;;2.38;86.59
61568;BME280;47462;59.172;17.196;2022-11-27T01:46:28;102462.41;;;2.40;86.22
61568;BME280;47462;59.172;17.196;2022-11-27T01:51:34;102451.59;;;2.25;86.41
61568;BME280;47462;59.172;17.196;2022-11-27T01:54:01;102435.28;;;2.24;86.28
61568;BME280;47462;59.172;17.196;2022-11-27T01:56:27;102461.66;;;2.43;86.56
61568;BME280;47462;59.172;17.196;2022-11-27T01:58:54;102477.22;;;2.46;86.48
61568;BME280;47462;59.172;17.196;2022-11-27T02:03:46;102484.13;;;2.47;86.28
61568;BME280;47462;59.172;17.196;2022-11-27T02:06:12;102480.88;;;2.27;86.06
61568;BME280;47462;59.172;17.196;2022-11-27T02:08:38;102471.91;;;2.41;86.05
61568;BME280;47462;59.172;17.196;2022-11-27T02:22:24;102469.31;;;2.41;86.05
61568;BME280;47462;59.172;17.196;2022-11-27T02:30:21;102478.97;;;2.47;86.26
61568;BME280;47462;59.172;17.196;2022-11-27T02:32:52;102453.56;;;2.32;85.76
61568;BME280;47462;59.172;17.196;2022-11-27T02:35:31;102392.94;;;1.90;85.88
61568;BME280;47462;59.172;17.196;2022-11-27T02:38:08;102363.13;;;1.73;85.99
61568;BME280;47462;59.172;17.196;2022-11-27T02:40:40;102483.91;;;2.41;86.45
61568;BME280;47462;59.172;17.196;2022-11-27T02:43:40;102482.75;;;2.32;86.48
61568;BME280;47462;59.172;17.196;2022-11-27T02:46:08;102439.16;;;2.11;85.80
61568;BME280;47462;59.172;17.196;2022-11-27T02:48:44;102464.53;;;2.26;86.41
61568;BME280;47462;59.172;17.196;2022-11-27T02:51:13;102471.59;;;2.32;85.98
61568;BME280;47462;59.172;17.196;2022-11-27T02:53:48;102482.09;;;2.38;85.84
61568;BME280;47462;59.172;17.196;2022-11-27T02:56:17;102310.50;;;1.39;86.12
61568;BME280;47462;59.172;17.196;2022-11-27T02:58:45;102488.13;;;2.39;86.32
61568;BME280;47462;59.172;17.196;2022-11-27T03:01:13;102490.81;;;2.42;86.57
61568;BME280;47462;59.172;17.196;2022-11-27T03:03:45;102474.28;;;2.35;85.90
61568;BME280;47462;59.172;17.196;2022-11-27T03:06:19;102382.22;;;1.78;85.83
61568;BME280;47462;59.172;17.196;2022-11-27T03:08:56;102489.06;;;2.41;85.97
61568;BME280;47462;59.172;17.196;2022-11-27T03:11:22;102469.03;;;2.32;86.29
61568;BME280;47462;59.172;17.196;2022-11-27T03:13:50;102492.16;;;2.30;86.18
61568;BME280;47462;59.172;17.196;2022-11-27T03:21:54;102493.34;;;2.40;86.18
61568;BME280;47462;59.172;17.196;2022-11-27T03:24:21;102482.22;;;2.41;86.15
61568;BME280;47462;59.172;17.196;2022-11-27T03:26:46;102474.97;;;2.31;86.15
61568;BME280;47462;59.172;17.196;2022-11-27T03:29:16;102476.00;;;2.35;86.32
61568;BME280;47462;59.172;17.196;2022-11-27T03:31:43;102410.06;;;1.90;86.04
61568;BME280;47462;59.172;17.196;2022-11-27T03:34:09;102468.56;;;2.44;86.32
61568;BME280;47462;59.172;17.196;2022-11-27T03:36:35;102468.47;;;2.41;86.11
61568;BME280;47462;59.172;17.196;2022-11-27T03:39:01;102442.09;;;2.22;86.09
61568;BME280;47462;59.172;17.196;2022-11-27T03:44:22;102476.81;;;2.34;85.95
61568;BME280;47462;59.172;17.196;2022-11-27T03:58:11;102446.03;;;2.12;86.10
61568;BME280;47462;59.172;17.196;2022-11-27T04:00:41;102483.47;;;2.27;85.63
61568;BME280;47462;59.172;17.196;2022-11-27T04:03:12;102482.56;;;2.26;85.93
61568;BME280;47462;59.172;17.196;2022-11-27T04:05:38;102421.63;;;2.01;86.14
61568;BME280;47462;59.172;17.196;2022-11-27T04:08:03;102476.84;;;2.35;85.94
61568;BME280;47462;59.172;17.196;2022-11-27T04:10:29;102468.31;;;2.36;86.31
61568;BME280;47462;59.172;17.196;2022-11-27T04:12:54;102378.25;;;1.88;86.01
61568;BME280;47462;59.172;17.196;2022-11-27T04:15:20;102481.25;;;2.38;86.25
61568;BME280;47462;59.172;17.196;2022-11-27T04:17:45;102424.88;;;2.21;86.26
61568;BME280;47462;59.172;17.196;2022-11-27T04:20:12;102390.78;;;2.03;86.06
61568;BME280;47462;59.172;17.196;2022-11-27T04:22:38;102429.91;;;2.18;86.08
61568;BME280;47462;59.172;17.196;2022-11-27T04:25:04;102381.06;;;1.95;86.30
61568;BME280;47462;59.172;17.196;2022-11-27T04:27:31;102455.69;;;2.44;85.63
61568;BME280;47462;59.172;17.196;2022-11-27T04:29:57;102448.88;;;2.46;85.80
61568;BME280;47462;59.172;17.196;2022-11-27T04:32:22;102448.97;;;2.49;85.84
61568;BME280;47462;59.172;17.196;2022-11-27T04:34:47;102436.91;;;2.48;85.99
61568;BME280;47462;59.172;17.196;2022-11-27T04:37:13;102391.84;;;2.09;85.56
61568;BME280;47462;59.172;17.196;2022-11-27T04:39:38;102418.06;;;2.23;85.47
61568;BME280;47462;59.172;17.196;2022-11-27T04:42:04;102285.06;;;1.47;85.66
61568;BME280;47462;59.172;17.196;2022-11-27T04:44:29;102381.19;;;1.99;85.94
61568;BME280;47462;59.172;17.196;2022-11-27T04:46:55;102378.50;;;1.95;85.77
61568;BME280;47462;59.172;17.196;2022-11-27T04:49:20;102421.59;;;2.25;85.65
61568;BME280;47462;59.172;17.196;2022-11-27T04:51:45;102397.88;;;2.10;85.66
61568;BME280;47462;59.172;17.196;2022-11-27T04:54:11;102440.13;;;2.41;85.37
61568;BME280;47462;59.172;17.196;2022-11-27T04:56:36;102370.16;;;2.03;85.48
61568;BME280;47462;59.172;17.196;2022-11-27T04:59:03;102405.50;;;2.07;85.31
61568;BME280;47462;59.172;17.196;2022-11-27T05:01:29;102391.59;;;2.02;85.73
61568;BME280;47462;59.172;17.196;2022-11-27T05:03:54;102434.66;;;2.06;86.03
61568;BME280;47462;59.172;17.196;2022-11-27T05:06:20;102455.22;;;2.30;86.04
61568;BME280;47462;59.172;17.196;2022-11-27T05:08:48;102447.91;;;2.17;85.80
61568;BME280;47462;59.172;17.196;2022-11-27T05:11:14;102405.38;;;1.78;86.32
61568;BME280;47462;59.172;17.196;2022-11-27T05:13:42;102457.34;;;2.16;86.25
61568;BME280;47462;59.172;17.196;2022-11-27T05:16:09;102429.34;;;2.01;85.89
61568;BME280;47462;59.172;17.196;2022-11-27T05:18:35;102297.97;;;1.24;86.03
61568;BME280;47462;59.172;17.196;2022-11-27T05:21:05;101980.81;;;-0.78;85.62
61568;BME280;47462;59.172;17.196;2022-11-27T05:23:31;102363.88;;;1.69;86.12
61568;BME280;47462;59.172;17.196;2022-11-27T05:25:57;102453.31;;;2.24;85.74
61568;BME280;47462;59.172;17.196;2022-11-27T05:28:24;102437.53;;;2.15;85.79
61568;BME280;47462;59.172;17.196;2022-11-27T05:30:49;102421.63;;;2.01;85.85
61568;BME280;47462;59.172;17.196;2022-11-27T05:33:16;102448.00;;;2.20;86.11
61568;BME280;47462;59.172;17.196;2022-11-27T05:35:42;102423.59;;;2.08;85.95
61568;BME280;47462;59.172;17.196;2022-11-27T05:38:10;102447.25;;;2.22;86.27
61568;BME280;47462;59.172;17.196;2022-11-27T05:40:36;102415.72;;;2.04;86.18
61568;BME280;47462;59.172;17.196;2022-11-27T05:43:01;102317.75;;;1.49;86.04
61568;BME280;47462;59.172;17.196;2022-11-27T05:45:27;102441.19;;;2.22;86.24
61568;BME280;47462;59.172;17.196;2022-11-27T05:47:52;102426.31;;;2.13;85.92
61568;BME280;47462;59.172;17.196;2022-11-27T05:50:17;102437.81;;;2.23;85.99
61568;BME280;47462;59.172;17.196;2022-11-27T05:52:43;102413.44;;;2.13;86.18
61568;BME280;47462;59.172;17.196;2022-11-27T05:55:08;102403.84;;;2.09;85.80
61568;BME280;47462;59.172;17.196;2022-11-27T05:57:34;102432.81;;;2.27;86.09
61568;BME280;47462;59.172;17.196;2022-11-27T05:59:59;102406.72;;;2.18;86.16
61568;BME280;47462;59.172;17.196;2022-11-27T06:02:25;102321.69;;;1.65;86.17
61568;BME280;47462;59.172;17.196;2022-11-27T06:04:51;102356.88;;;1.90;86.43
61568;BME280;47462;59.172;17.196;2022-11-27T06:07:17;102416.56;;;2.30;86.27
61568;BME280;47462;59.172;17.196;2022-11-27T06:09:42;102359.81;;;2.01;86.12
61568;BME280;47462;59.172;17.196;2022-11-27T06:12:08;102376.13;;;2.02;85.77
61568;BME280;47462;59.172;17.196;2022-11-27T06:14:33;102372.66;;;2.00;85.49
61568;BME280;47462;59.172;17.196;2022-11-27T06:17:00;102417.34;;;2.27;85.66
61568;BME280;47462;59.172;17.196;2022-11-27T06:19:26;102423.31;;;2.26;85.84
61568;BME280;47462;59.172;17.196;2022-11-27T06:21:51;102390.25;;;2.13;85.91
61568;BME280;47462;59.172;17.196;2022-11-27T06:24:17;102368.41;;;2.02;86.06
61568;BME280;47462;59.172;17.196;2022-11-27T06:26:42;102201.28;;;1.03;85.47
61568;BME280;47462;59.172;17.196;2022-11-27T06:29:09;102414.19;;;2.36;85.56
61568;BME280;47462;59.172;17.196;2022-11-27T06:31:34;102404.38;;;2.24;85.84
61568;BME280;47462;59.172;17.196;2022-11-27T06:34:00;102396.88;;;2.32;85.82
61568;BME280;47462;59.172;17.196;2022-11-27T06:36:27;102413.75;;;2.22;85.86
61568;BME280;47462;59.172;17.196;2022-11-27T06:38:53;102396.28;;;2.13;85.94
61568;BME280;47462;59.172;17.196;2022-11-27T06:41:20;102415.53;;;2.25;85.80
61568;BME280;47462;59.172;17.196;2022-11-27T06:43:46;102392.41;;;2.26;85.73
61568;BME280;47462;59.172;17.196;2022-11-27T06:46:14;102344.16;;;1.95;85.93
61568;BME280;47462;59.172;17.196;2022-11-27T06:48:44;102331.16;;;1.90;85.56
61568;BME280;47462;59.172;17.196;2022-11-27T06:51:13;102390.72;;;2.27;85.89
61568;BME280;47462;59.172;17.196;2022-11-27T06:53:39;102366.03;;;2.08;85.45
61568;BME280;47462;59.172;17.196;2022-11-27T06:56:16;102381.78;;;2.17;85.74
61568;BME280;47462;59.172;17.196;2022-11-27T06:58:43;102364.31;;;2.07;85.82
61568;BME280;47462;59.172;17.196;2022-11-27T07:01:12;102379.66;;;2.04;85.07
61568;BME280;47462;59.172;17.196;2022-11-27T07:03:39;102408.41;;;2.16;85.39
61568;BME280;47462;59.172;17.196;2022-11-27T07:06:05;102406.28;;;2.04;85.98
61568;BME280;47462;59.172;17.196;2022-11-27T07:08:32;102401.22;;;2.07;85.57
61568;BME280;47462;59.172;17.196;2022-11-27T07:11:10;102382.94;;;2.00;85.80
61568;BME280;47462;59.172;17.196;2022-11-27T07:13:36;102401.44;;;2.13;85.68
61568;BME280;47462;59.172;17.196;2022-11-27T07:16:07;102393.69;;;2.13;85.85
61568;BME280;47462;59.172;17.196;2022-11-27T07:18:38;102363.81;;;1.93;85.81
61568;BME280;47462;59.172;17.196;2022-11-27T07:21:10;102402.28;;;2.14;85.77
61568;BME280;47462;59.172;17.196;2022-11-27T07:23:40;102403.28;;;2.18;85.72
61568;BME280;47462;59.172;17.196;2022-11-27T07:26:08;102350.03;;;1.91;85.46
61568;BME280;47462;59.172;17.196;2022-11-27T07:28:34;102420.63;;;2.23;85.57
61568;BME280;47462;59.172;17.196;2022-11-27T07:31:00;102402.59;;;2.23;85.82
61568;BME280;47462;59.172;17.196;2022-11-27T07:33:26;102367.78;;;2.09;85.95
61568;BME280;47462;59.172;17.196;2022-11-27T07:36:00;102413.94;;;2.28;85.62
61568;BME280;47462;59.172;17.196;2022-11-27T07:38:29;102363.84;;;2.20;85.91
61568;BME280;47462;59.172;17.196;2022-11-27T07:40:58;102381.41;;;2.32;85.65
61568;BME280;47462;59.172;17.196;2022-11-27T07:43:24;102349.88;;;2.12;85.68
61568;BME280;47462;59.172;17.196;2022-11-27T07:45:49;102301.56;;;1.79;85.59
61568;BME280;47462;59.172;17.196;2022-11-27T07:48:15;102385.41;;;2.22;85.61
61568;BME280;47462;59.172;17.196;2022-11-27T07:50:42;102389.09;;;2.30;85.92
61568;BME280;47462;59.172;17.196;2022-11-27T07:53:10;102369.75;;;2.16;85.69
61568;BME280;47462;59.172;17.196;2022-11-27T07:55:40;102325.44;;;1.99;85.54
61568;BME280;47462;59.172;17.196;2022-11-27T07:58:06;102383.34;;;2.38;85.67
61568;BME280;47462;59.172;17.196;2022-11-27T08:00:33;102380.84;;;2.41;85.47
61568;BME280;47462;59.172;17.196;2022-11-27T08:02:59;102379.09;;;2.40;85.67
61568;BME280;47462;59.172;17.196;2022-11-27T08:05:24;102381.66;;;2.40;85.74
61568;BME280;47462;59.172;17.196;2022-11-27T08:07:50;102363.34;;;2.30;85.58
61568;BME280;47462;59.172;17.196;2022-11-27T08:10:15;102363.34;;;2.30;85.36
61568;BME280;47462;59.172;17.196;2022-11-27T08:12:41;102330.88;;;2.08;85.18
61568;BME280;47462;59.172;17.196;2022-11-27T08:15:07;102388.81;;;2.48;85.53
61568;BME280;47462;59.172;17.196;2022-11-27T08:17:33;102393.13;;;2.49;85.51
61568;BME280;47462;59.172;17.196;2022-11-27T08:19:58;102370.34;;;2.35;85.38
61568;BME280;47462;59.172;17.196;2022-11-27T08:22:24;102415.56;;;2.52;85.37
61568;BME280;47462;59.172;17.196;2022-11-27T08:24:52;102359.19;;;2.36;85.42
61568;BME280;47462;59.172;17.196;2022-11-27T08:27:18;102349.53;;;2.28;85.40
61568;BME280;47462;59.172;17.196;2022-11-27T08:29:44;102324.13;;;2.12;84.68
61568;BME280;47462;59.172;17.196;2022-11-27T08:32:11;102379.63;;;2.57;84.88
61568;BME280;47462;59.172;17.196;2022-11-27T08:34:39;102374.22;;;2.49;85.23
61568;BME280;47462;59.172;17.196;2022-11-27T08:37:05;102370.69;;;2.45;85.13
61568;BME280;47462;59.172;17.196;2022-11-27T08:39:32;102310.19;;;2.05;84.90
61568;BME280;47462;59.172;17.196;2022-11-27T08:41:58;102260.09;;;1.70;84.61
61568;BME280;47462;59.172;17.196;2022-11-27T08:44:24;102274.91;;;1.77;84.51
61568;BME280;47462;59.172;17.196;2022-11-27T08:46:49;102386.00;;;2.41;84.87
61568;BME280;47462;59.172;17.196;2022-11-27T08:49:14;102408.03;;;2.58;85.03
61568;BME280;47462;59.172;17.196;2022-11-27T08:51:40;102408.03;;;2.58;84.79
61568;BME280;47462;59.172;17.196;2022-11-27T08:54:06;102407.22;;;2.59;84.78
61568;BME280;47462;59.172;17.196;2022-11-27T08:56:31;102409.78;;;2.59;84.78
61568;BME280;47462;59.172;17.196;2022-11-27T08:58:56;102418.44;;;2.61;84.73
61568;BME280;47462;59.172;17.196;2022-11-27T09:01:27;102367.72;;;2.33;85.11
61568;BME280;47462;59.172;17.196;2022-11-27T09:03:53;102410.59;;;2.58;84.85
61568;BME280;47462;59.172;17.196;2022-11-27T09:06:21;102424.72;;;2.70;84.59
61568;BME280;47462;59.172;17.196;2022-11-27T09:08:47;102425.44;;;2.65;84.83
61568;BME280;47462;59.172;17.196;2022-11-27T09:11:14;102417.72;;;2.65;84.82
61568;BME280;47462;59.172;17.196;2022-11-27T09:13:42;102419.63;;;2.71;84.81
61568;BME280;47462;59.172;17.196;2022-11-27T09:16:11;102365.00;;;2.28;84.39
61568;BME280;47462;59.172;17.196;2022-11-27T09:18:36;102356.94;;;2.18;84.09
61568;BME280;47462;59.172;17.196;2022-11-27T09:21:07;102361.97;;;2.14;84.53
61568;BME280;47462;59.172;17.196;2022-11-27T09:23:34;102413.69;;;2.48;84.64
61568;BME280;47462;59.172;17.196;2022-11-27T09:26:07;102405.91;;;2.46;84.66
61568;BME280;47462;59.172;17.196;2022-11-27T09:28:33;102312.41;;;1.96;84.23
61568;BME280;47462;59.172;17.196;2022-11-27T09:31:03;102409.59;;;2.53;84.32
61568;BME280;47462;59.172;17.196;2022-11-27T09:33:31;102440.38;;;2.76;84.19
61568;BME280;47462;59.172;17.196;2022-11-27T09:35:57;102435.41;;;2.82;84.54
61568;BME280;47462;59.172;17.196;2022-11-27T09:38:23;102410.59;;;2.58;83.65
61568;BME280;47462;59.172;17.196;2022-11-27T09:40:51;102406.03;;;2.49;84.29
61568;BME280;47462;59.172;17.196;2022-11-27T09:43:25;102445.53;;;2.76;84.10
61568;BME280;47462;59.172;17.196;2022-11-27T09:45:53;102448.94;;;2.75;83.79
61568;BME280;47462;59.172;17.196;2022-11-27T09:48:27;102431.22;;;2.58;83.76
61568;BME280;47462;59.172;17.196;2022-11-27T09:50:59;102407.06;;;2.55;83.94
61568;BME280;47462;59.172;17.196;2022-11-27T09:53:42;102449.66;;;2.71;83.93
61568;BME280;47462;59.172;17.196;2022-11-27T09:56:13;102415.72;;;2.57;84.26
61568;BME280;47462;59.172;17.196;2022-11-27T09:58:42;102425.44;;;2.65;84.34
61568;BME280;47462;59.172;17.196;2022-11-27T10:01:29;102448.34;;;2.83;84.43
61568;BME280;47462;59.172;17.196;2022-11-27T10:03:55;102337.38;;;2.24;84.43
61568;BME280;47462;59.172;17.196;2022-11-27T10:06:32;102443.78;;;2.75;84.03
61568;BME280;47462;59.172;17.196;2022-11-27T10:09:23;102436.66;;;2.67;84.17
61568;BME280;47462;59.172;17.196;2022-11-27T10:12:21;102432.47;;;2.70;83.91
61568;BME280;47462;59.172;17.196;2022-11-27T10:23:44;102419.66;;;2.73;84.16
61568;BME280;47462;59.172;17.196;2022-11-27T10:26:31;102359.38;;;2.42;84.26
61568;BME280;47462;59.172;17.196;2022-11-27T10:31:48;102385.53;;;2.54;83.88
61568;BME280;47462;59.172;17.196;2022-11-27T10:36:46;102382.88;;;2.51;83.72
61568;BME280;47462;59.172;17.196;2022-11-27T10:39:39;102422.38;;;2.77;84.17
61568;BME280;47462;59.172;17.196;2022-11-27T10:42:16;102404.09;;;2.70;84.04
61568;BME280;47462;59.172;17.196;2022-11-27T10:45:07;102404.19;;;2.73;84.12
61568;BME280;47462;59.172;17.196;2022-11-27T10:47:42;102415.75;;;2.85;84.28
61568;BME280;47462;59.172;17.196;2022-11-27T10:50:15;102400.81;;;2.75;83.78
61568;BME280;47462;59.172;17.196;2022-11-27T10:53:03;102404.19;;;2.73;84.11
61568;BME280;47462;59.172;17.196;2022-11-27T11:00:39;102384.53;;;2.76;84.06
61568;BME280;47462;59.172;17.196;2022-11-27T11:03:05;102344.31;;;2.54;83.91
61568;BME280;47462;59.172;17.196;2022-11-27T11:05:32;102391.31;;;2.73;83.77
61568;BME280;47462;59.172;17.196;2022-11-27T11:08:02;102390.78;;;2.84;84.24
61568;BME280;47462;59.172;17.196;2022-11-27T11:11:08;102359.28;;;2.66;83.84
61568;BME280;47462;59.172;17.196;2022-11-27T11:13:31;102368.28;;;2.79;83.60
61568;BME280;47462;59.172;17.196;2022-11-27T11:15:59;102369.47;;;2.90;83.63
61568;BME280;47462;59.172;17.196;2022-11-27T11:18:28;102278.38;;;2.32;83.55
61568;BME280;47462;59.172;17.196;2022-11-27T11:21:00;102372.22;;;2.96;83.78
61568;BME280;47462;59.172;17.196;2022-11-27T11:23:29;102351.31;;;2.87;83.87
61568;BME280;47462;59.172;17.196;2022-11-27T11:26:00;102336.31;;;2.74;83.77
61568;BME280;47462;59.172;17.196;2022-11-27T11:28:29;102334.00;;;2.83;83.62
61568;BME280;47462;59.172;17.196;2022-11-27T11:30:58;102366.38;;;3.02;83.47
61568;BME280;47462;59.172;17.196;2022-11-27T11:33:26;102245.06;;;2.38;83.42
61568;BME280;47462;59.172;17.196;2022-11-27T11:35:53;102328.94;;;2.86;83.68
61568;BME280;47462;59.172;17.196;2022-11-27T11:38:26;102334.91;;;2.83;83.75
61568;BME280;47462;59.172;17.196;2022-11-27T11:41:02;102379.38;;;3.05;83.35
61568;BME280;47462;59.172;17.196;2022-11-27T11:43:31;102310.63;;;2.77;83.65
61568;BME280;47462;59.172;17.196;2022-11-27T11:46:28;102368.38;;;3.12;83.88
61568;BME280;47462;59.172;17.196;2022-11-27T11:49:06;102375.47;;;3.19;83.62
61568;BME280;47462;59.172;17.196;2022-11-27T11:54:33;102365.25;;;3.22;83.40
61568;BME280;47462;59.172;17.196;2022-11-27T11:57:05;102373.19;;;3.30;83.87
61568;BME280;47462;59.172;17.196;2022-11-27T12:00:10;102330.78;;;3.20;83.05
61568;BME280;47462;59.172;17.196;2022-11-27T12:05:30;102356.16;;;3.35;83.15
61568;BME280;47462;59.172;17.196;2022-11-27T12:19:37;102354.31;;;3.31;83.08
61568;BME280;47462;59.172;17.196;2022-11-27T12:22:39;102352.47;;;3.27;83.32
61568;BME280;47462;59.172;17.196;2022-11-27T12:28:12;102256.25;;;2.69;83.08
61568;BME280;47462;59.172;17.196;2022-11-27T12:33:42;102339.88;;;3.08;83.24
61568;BME280;47462;59.172;17.196;2022-11-27T12:39:10;102343.59;;;3.17;83.39
61568;BME280;47462;59.172;17.196;2022-11-27T12:46:57;102316.00;;;3.15;83.23
61568;BME280;47462;59.172;17.196;2022-11-27T12:52:15;102281.31;;;3.03;83.15
61568;BME280;47462;59.172;17.196;2022-11-27T12:54:54;102317.28;;;3.29;83.08
61568;BME280;47462;59.172;17.196;2022-11-27T12:57:53;102296.19;;;3.14;83.00
61568;BME280;47462;59.172;17.196;2022-11-27T13:00:23;102235.84;;;2.77;82.93
61568;BME280;47462;59.172;17.196;2022-11-27T13:03:05;102308.47;;;3.22;83.20
61568;BME280;47462;59.172;17.196;2022-11-27T13:05:43;102318.81;;;3.22;83.25
61568;BME280;47462;59.172;17.196;2022-11-27T13:08:15;102303.75;;;3.08;83.10
61568;BME280;47462;59.172;17.196;2022-11-27T13:10:55;102317.78;;;3.16;83.10
61568;BME280;47462;59.172;17.196;2022-11-27T13:16:05;102295.63;;;2.94;83.08
61568;BME280;47462;59.172;17.196;2022-11-27T13:18:39;102252.06;;;2.71;83.34
61568;BME280;47462;59.172;17.196;2022-11-27T13:21:13;102211.69;;;2.43;83.49
61568;BME280;47462;59.172;17.196;2022-11-27T13:23:39;102230.81;;;2.51;83.50
61568;BME280;47462;59.172;17.196;2022-11-27T13:26:11;102307.66;;;2.93;83.77
61568;BME280;47462;59.172;17.196;2022-11-27T13:28:43;102319.78;;;2.96;83.91
61568;BME280;47462;59.172;17.196;2022-11-27T13:31:27;102286.50;;;2.75;83.75
61568;BME280;47462;59.172;17.196;2022-11-27T13:34:00;102257.88;;;2.65;83.75
61568;BME280;47462;59.172;17.196;2022-11-27T13:36:36;102320.66;;;2.96;83.67
61568;BME280;47462;59.172;17.196;2022-11-27T13:39:03;102298.72;;;2.80;83.93
61568;BME280;47462;59.172;17.196;2022-11-27T13:41:35;102322.75;;;2.79;84.19
61568;BME280;47462;59.172;17.196;2022-11-27T13:44:25;102300.13;;;2.71;84.16
61568;BME280;47462;59.172;17.196;2022-11-27T13:46:54;102324.69;;;2.87;83.94
61568;BME280;47462;59.172;17.196;2022-11-27T13:49:32;102274.00;;;2.58;84.00
61568;BME280;47462;59.172;17.196;2022-11-27T13:54:35;102321.34;;;2.62;84.26
61568;BME280;47462;59.172;17.196;2022-11-27T13:57:12;102320.63;;;2.66;83.56
61568;BME280;47462;59.172;17.196;2022-11-27T13:59:39;102326.63;;;2.65;83.74
61568;BME280;47462;59.172;17.196;2022-11-27T14:02:06;102297.97;;;2.56;83.86
61568;BME280;47462;59.172;17.196;2022-11-27T14:04:33;102312.88;;;2.66;84.05
61568;BME280;47462;59.172;17.196;2022-11-27T14:07:05;102261.06;;;2.28;83.99
61568;BME280;47462;59.172;17.196;2022-11-27T14:09:41;102279.47;;;2.40;84.15
61568;BME280;47462;59.172;17.196;2022-11-27T14:14:44;102276.25;;;2.47;84.31
61568;BME280;47462;59.172;17.196;2022-11-27T14:17:32;102276.25;;;2.47;84.48
61568;BME280;47462;59.172;17.196;2022-11-27T14:20:03;102231.69;;;2.21;84.41
61568;BME280;47462;59.172;17.196;2022-11-27T14:22:50;102304.97;;;2.60;84.07
61568;BME280;47462;59.172;17.196;2022-11-27T14:27:56;102297.56;;;2.71;84.18
61568;BME280;47462;59.172;17.196;2022-11-27T14:30:35;102308.66;;;2.68;84.28
61568;BME280;47462;59.172;17.196;2022-11-27T14:33:04;102308.53;;;2.63;84.27
61568;BME280;47462;59.172;17.196;2022-11-27T14:35:30;102280.22;;;2.36;84.18
61568;BME280;47462;59.172;17.196;2022-11-27T14:38:07;102241.56;;;2.07;84.16
61568;BME280;47462;59.172;17.196;2022-11-27T14:40:33;102315.19;;;2.57;84.46
61568;BME280;47462;59.172;17.196;2022-11-27T14:43:19;102240.88;;;2.13;84.17
61568;BME280;47462;59.172;17.196;2022-11-27T14:45:50;102312.66;;;2.58;84.79
61568;BME280;47462;59.172;17.196;2022-11-27T14:48:24;102289.81;;;2.42;84.25